createdAt,value
2022-12-18T00:01:16.024Z,-5.70
2022-12-18T00:03:43.233Z,-5.70
2022-12-18T00:06:10.798Z,-5.70
2022-12-18T00:08:37.440Z,-5.80
2022-12-18T00:11:09.660Z,-5.90
2022-12-18T00:13:37.028Z,-5.90
2022-12-18T00:20:33.214Z,-5.90
2022-12-18T00:22:59.925Z,-5.80
2022-12-18T00:25:26.655Z,-5.90
2022-12-18T00:27:53.379Z,-5.80
2022-12-18T00:30:20.397Z,-5.80
2022-12-18T00:32:47.205Z,-5.80
2022-12-18T00:35:14.027Z,-5.80
2022-12-18T00:37:40.701Z,-5.80
2022-12-18T00:40:08.416Z,-5.80
2022-12-18T00:42:53.598Z,-5.90
2022-12-18T00:45:20.302Z,-5.90
2022-12-18T00:47:47.063Z,-6.00
2022-12-18T00:50:13.739Z,-6.20
2022-12-18T00:52:41.806Z,-6.10
2022-12-18T00:55:08.897Z,-6.10
2022-12-18T00:57:35.708Z,-6.00
2022-12-18T01:00:02.856Z,-5.90
2022-12-18T01:02:29.887Z,-5.90
2022-12-18T01:04:56.653Z,-6.00
2022-12-18T01:07:23.481Z,-5.90
2022-12-18T01:09:50.182Z,-5.90
2022-12-18T01:12:16.963Z,-5.80
2022-12-18T01:14:43.668Z,-5.80
2022-12-18T01:17:10.376Z,-5.80
2022-12-18T01:19:37.090Z,-5.90
2022-12-18T01:22:04.269Z,-5.90
2022-12-18T01:24:30.936Z,-5.80
2022-12-18T01:26:58.182Z,-5.80
2022-12-18T01:29:24.799Z,-5.70
2022-12-18T01:31:51.511Z,-5.80
2022-12-18T01:34:18.198Z,-5.90
2022-12-18T01:36:44.869Z,-5.90
2022-12-18T01:39:14.388Z,-5.90
2022-12-18T01:42:02.092Z,-5.90
2022-12-18T01:44:54.139Z,-5.90
2022-12-18T01:47:38.058Z,-5.90
2022-12-18T01:50:39.235Z,-5.90
2022-12-18T01:53:16.783Z,-6.00
2022-12-18T01:55:53.318Z,-5.90
2022-12-18T01:58:24.159Z,-5.90
2022-12-18T02:00:51.034Z,-6.00
2022-12-18T02:03:20.158Z,-5.90
2022-12-18T02:06:16.561Z,-6.00
2022-12-18T02:08:59.498Z,-6.00
2022-12-18T02:11:59.359Z,-6.00
2022-12-18T02:14:39.236Z,-6.10
2022-12-18T02:17:24.456Z,-6.10
2022-12-18T02:20:10.443Z,-6.00
2022-12-18T02:22:37.088Z,-5.90
2022-12-18T02:25:34.928Z,-5.90
2022-12-18T02:28:08.001Z,-5.90
2022-12-18T02:30:38.603Z,-5.80
2022-12-18T02:33:09.012Z,-5.80
2022-12-18T02:35:37.236Z,-5.70
2022-12-18T02:38:05.530Z,-5.70
2022-12-18T02:40:38.475Z,-5.70
2022-12-18T02:43:14.115Z,-5.70
2022-12-18T02:45:53.045Z,-5.70
2022-12-18T02:48:24.551Z,-5.70
2022-12-18T02:51:26.414Z,-5.70
2022-12-18T02:54:11.474Z,-5.70
2022-12-18T02:56:55.371Z,-5.70
2022-12-18T02:59:40.999Z,-5.70
2022-12-18T03:02:33.856Z,-5.70
2022-12-18T03:05:14.091Z,-5.70
2022-12-18T03:07:52.822Z,-5.70
2022-12-18T03:10:26.008Z,-5.80
2022-12-18T03:13:10.464Z,-5.80
2022-12-18T03:15:48.894Z,-5.80
2022-12-18T03:18:21.474Z,-5.70
2022-12-18T03:20:51.848Z,-5.70
2022-12-18T03:23:26.664Z,-5.70
2022-12-18T03:26:05.859Z,-5.70
2022-12-18T03:28:43.014Z,-5.70
2022-12-18T03:31:13.383Z,-5.60
2022-12-18T03:33:53.233Z,-5.60
2022-12-18T03:36:21.916Z,-5.70
2022-12-18T03:38:48.908Z,-5.60
2022-12-18T03:41:33.315Z,-5.60
2022-12-18T03:44:22.173Z,-5.70
2022-12-18T03:47:15.592Z,-5.80
2022-12-18T03:50:13.595Z,-5.80
2022-12-18T03:52:50.006Z,-5.90
2022-12-18T03:55:19.293Z,-5.90
2022-12-18T03:57:50.365Z,-5.90
2022-12-18T04:00:19.006Z,-5.90
2022-12-18T04:03:05.652Z,-5.90
2022-12-18T04:05:39.755Z,-5.90
2022-12-18T04:08:08.007Z,-5.90
2022-12-18T04:10:38.302Z,-5.90
2022-12-18T04:13:05.103Z,-5.80
2022-12-18T04:15:35.595Z,-5.80
2022-12-18T04:18:03.875Z,-5.80
2022-12-18T04:20:37.551Z,-5.80
2022-12-18T04:23:04.351Z,-5.90
2022-12-18T04:25:31.092Z,-6.00
2022-12-18T04:28:06.323Z,-6.00
2022-12-18T04:30:34.440Z,-6.10
2022-12-18T04:33:01.429Z,-6.00
2022-12-18T04:35:31.211Z,-6.00
2022-12-18T04:37:58.276Z,-6.00
2022-12-18T04:40:25.084Z,-6.00
2022-12-18T04:42:52.713Z,-6.00
2022-12-18T04:45:19.633Z,-6.00
2022-12-18T04:47:46.369Z,-6.10
2022-12-18T04:50:13.065Z,-6.00
2022-12-18T04:52:39.775Z,-6.00
2022-12-18T04:55:06.798Z,-5.90
2022-12-18T04:57:33.526Z,-5.90
2022-12-18T05:00:00.215Z,-5.90
2022-12-18T05:02:26.986Z,-6.00
2022-12-18T05:04:53.766Z,-6.00
2022-12-18T05:07:20.471Z,-6.00
2022-12-18T05:09:47.268Z,-6.10
2022-12-18T05:12:14.118Z,-6.10
2022-12-18T05:14:40.824Z,-6.10
2022-12-18T05:17:07.493Z,-6.00
2022-12-18T05:19:34.303Z,-6.00
2022-12-18T05:22:01.027Z,-6.00
2022-12-18T05:24:27.725Z,-5.90
2022-12-18T05:26:54.404Z,-6.00
2022-12-18T05:29:21.110Z,-6.00
2022-12-18T05:31:47.901Z,-6.00
2022-12-18T05:34:14.742Z,-6.00
2022-12-18T05:36:41.423Z,-6.00
2022-12-18T05:39:08.543Z,-6.00
2022-12-18T05:41:35.129Z,-6.00
2022-12-18T05:44:01.986Z,-6.10
2022-12-18T05:46:28.821Z,-6.10
2022-12-18T05:48:55.624Z,-6.10
2022-12-18T05:51:23.515Z,-6.10
2022-12-18T05:53:50.246Z,-6.40
2022-12-18T05:56:22.438Z,-6.20
2022-12-18T05:58:53.313Z,-6.30
2022-12-18T06:01:25.322Z,-6.30
2022-12-18T06:03:52.285Z,-6.30
2022-12-18T06:06:23.114Z,-6.30
2022-12-18T06:08:50.436Z,-6.30
2022-12-18T06:11:19.571Z,-6.30
2022-12-18T06:13:46.657Z,-6.30
2022-12-18T06:23:49.535Z,-6.00
2022-12-18T06:26:16.743Z,-6.00
2022-12-18T06:28:43.632Z,-6.00
2022-12-18T06:31:11.308Z,-6.00
2022-12-18T06:33:38.877Z,-6.00
2022-12-18T06:36:11.344Z,-6.00
2022-12-18T06:38:42.026Z,-6.00
2022-12-18T06:41:10.003Z,-6.00
2022-12-18T06:43:37.584Z,-6.10
2022-12-18T06:46:06.183Z,-6.10
2022-12-18T06:48:33.401Z,-6.20
2022-12-18T06:51:00.130Z,-6.20
2022-12-18T06:53:27.647Z,-6.20
2022-12-18T06:56:03.858Z,-6.20
2022-12-18T06:58:33.570Z,-6.10
2022-12-18T07:01:01.176Z,-6.10
2022-12-18T07:03:27.953Z,-6.20
2022-12-18T07:05:54.612Z,-6.20
2022-12-18T07:08:21.316Z,-6.20
2022-12-18T07:10:54.428Z,-6.20
2022-12-18T07:13:23.235Z,-6.10
2022-12-18T07:15:49.967Z,-6.10
2022-12-18T07:18:16.643Z,-6.10
2022-12-18T07:20:43.487Z,-6.10
2022-12-18T07:23:10.212Z,-6.00
2022-12-18T07:25:37.910Z,-6.00
2022-12-18T07:28:05.148Z,-6.00
2022-12-18T07:30:32.257Z,-6.00
2022-12-18T07:32:58.862Z,-6.00
2022-12-18T07:35:25.656Z,-6.00
2022-12-18T07:37:52.411Z,-6.00
2022-12-18T07:40:19.154Z,-6.00
2022-12-18T07:42:45.820Z,-6.00
2022-12-18T07:45:12.528Z,-6.00
2022-12-18T07:47:39.326Z,-6.10
2022-12-18T07:50:06.700Z,-6.10
2022-12-18T07:52:33.541Z,-6.20
2022-12-18T07:55:00.819Z,-6.30
2022-12-18T07:57:49.373Z,-6.30
2022-12-18T08:00:14.892Z,-6.30
2022-12-18T08:02:42.318Z,-6.20
2022-12-18T08:05:09.572Z,-6.10
2022-12-18T08:07:36.170Z,-6.10
2022-12-18T08:10:02.913Z,-6.00
2022-12-18T08:12:30.834Z,-5.90
2022-12-18T08:14:57.525Z,-5.90
2022-12-18T08:17:24.399Z,-5.80
2022-12-18T08:19:51.045Z,-5.80
2022-12-18T08:22:17.720Z,-5.70
2022-12-18T08:24:44.456Z,-5.70
2022-12-18T08:27:29.043Z,-5.70
2022-12-18T08:29:57.261Z,-5.70
2022-12-18T08:32:24.703Z,-5.60
2022-12-18T08:34:51.421Z,-5.60
2022-12-18T08:37:18.151Z,-5.70
2022-12-18T08:39:44.835Z,-5.80
2022-12-18T08:42:30.408Z,-5.80
2022-12-18T08:44:57.115Z,-5.70
2022-12-18T08:47:23.802Z,-5.50
2022-12-18T08:49:50.475Z,-5.40
2022-12-18T08:52:17.136Z,-5.10
2022-12-18T08:54:43.923Z,-4.80
2022-12-18T08:57:10.697Z,-4.90
2022-12-18T08:59:37.391Z,-4.90
2022-12-18T09:02:04.279Z,-4.90
2022-12-18T09:04:31.144Z,-4.80
2022-12-18T09:06:57.829Z,-4.80
2022-12-18T09:09:24.528Z,-4.70
2022-12-18T09:11:51.265Z,-4.60
2022-12-18T09:14:17.949Z,-4.50
2022-12-18T09:16:44.750Z,-4.40
2022-12-18T09:19:11.781Z,-4.20
2022-12-18T09:21:41.217Z,-4.20
2022-12-18T09:24:14.856Z,-4.20
2022-12-18T09:26:41.623Z,-4.10
2022-12-18T09:29:10.398Z,-4.00
2022-12-18T09:31:37.675Z,-3.90
2022-12-18T09:34:04.364Z,-3.80
2022-12-18T09:36:32.508Z,-3.60
2022-12-18T09:39:03.745Z,-3.50
2022-12-18T09:41:35.908Z,-3.60
2022-12-18T09:44:14.980Z,-3.70
2022-12-18T09:46:47.682Z,-3.60
2022-12-18T09:49:18.738Z,-3.60
2022-12-18T09:51:52.034Z,-3.10
2022-12-18T09:54:26.600Z,-3.40
2022-12-18T09:56:54.573Z,-3.30
2022-12-18T09:59:32.857Z,-3.20
2022-12-18T10:01:59.640Z,-3.00
2022-12-18T10:04:31.513Z,-2.90
2022-12-18T10:07:09.328Z,-2.80
2022-12-18T10:09:53.637Z,-2.60
2022-12-18T10:12:20.532Z,-2.40
2022-12-18T10:14:55.665Z,-2.30
2022-12-18T10:18:18.789Z,-2.30
2022-12-18T10:21:02.408Z,-2.30
2022-12-18T10:23:53.932Z,-2.30
2022-12-18T10:26:20.996Z,-2.20
2022-12-18T10:28:48.831Z,-2.10
2022-12-18T10:31:24.573Z,-2.10
2022-12-18T10:33:54.508Z,-2.10
2022-12-18T10:36:21.673Z,-2.20
2022-12-18T10:38:50.551Z,-2.20
2022-12-18T10:41:21.990Z,-2.20
2022-12-18T10:43:48.975Z,-2.30
2022-12-18T10:46:20.333Z,-2.30
2022-12-18T10:48:55.099Z,-2.10
2022-12-18T10:51:34.426Z,-2.00
2022-12-18T10:54:17.901Z,-1.90
2022-12-18T10:56:45.118Z,-1.80
2022-12-18T10:59:15.668Z,-1.70
2022-12-18T11:01:58.940Z,-1.70
2022-12-18T11:04:28.704Z,-1.70
2022-12-18T11:07:04.107Z,-1.70
2022-12-18T11:09:36.450Z,-1.70
2022-12-18T11:12:07.099Z,-1.60
2022-12-18T11:14:47.098Z,-1.50
2022-12-18T11:17:32.938Z,-1.60
2022-12-18T11:20:01.883Z,-1.60
2022-12-18T11:22:31.524Z,-1.60
2022-12-18T11:25:34.429Z,-1.50
2022-12-18T11:28:25.598Z,-1.30
2022-12-18T11:31:09.608Z,-1.10
2022-12-18T11:33:38.903Z,-1.00
2022-12-18T11:36:10.523Z,-0.90
2022-12-18T11:38:40.237Z,-0.70
2022-12-18T11:41:19.181Z,-0.60
2022-12-18T11:43:59.574Z,-0.60
2022-12-18T11:46:35.604Z,-0.60
2022-12-18T11:49:22.523Z,-0.50
2022-12-18T11:51:59.831Z,-0.40
2022-12-18T11:54:26.918Z,-0.50
2022-12-18T11:57:11.439Z,-0.50
2022-12-18T11:59:44.396Z,-0.60
2022-12-18T12:02:34.318Z,-0.60
2022-12-18T12:05:19.441Z,-0.60
2022-12-18T12:08:08.741Z,-0.60
2022-12-18T12:10:45.088Z,-0.60
2022-12-18T12:13:30.483Z,-0.50
2022-12-18T12:16:12.751Z,-0.50
2022-12-18T12:18:42.706Z,-0.50
2022-12-18T12:21:22.833Z,-0.40
2022-12-18T12:24:13.552Z,-0.40
2022-12-18T12:26:53.057Z,-0.30
2022-12-18T12:29:45.557Z,-0.10
2022-12-18T12:32:21.701Z,0.00
2022-12-18T12:35:26.441Z,-0.10
2022-12-18T12:38:11.970Z,0.00
2022-12-18T12:41:02.135Z,0.10
2022-12-18T12:43:50.960Z,0.20
2022-12-18T12:46:22.266Z,0.30
2022-12-18T12:48:53.730Z,0.30
2022-12-18T12:51:35.291Z,0.30
2022-12-18T12:54:06.859Z,0.30
2022-12-18T12:57:04.259Z,0.30
2022-12-18T12:59:52.074Z,0.30
2022-12-18T13:02:34.575Z,0.30
2022-12-18T13:05:31.064Z,0.30
2022-12-18T13:08:08.336Z,0.20
2022-12-18T13:10:41.643Z,0.20
2022-12-18T13:16:08.981Z,0.30
2022-12-18T13:18:36.024Z,0.40
2022-12-18T13:21:14.451Z,0.40
2022-12-18T13:23:41.881Z,0.50
2022-12-18T13:26:09.620Z,0.50
2022-12-18T13:28:46.816Z,0.60
2022-12-18T13:31:32.583Z,0.60
2022-12-18T13:34:27.580Z,0.70
2022-12-18T13:36:58.306Z,0.70
2022-12-18T13:39:35.024Z,0.80
2022-12-18T13:42:08.434Z,0.80
2022-12-18T13:44:42.176Z,0.80
2022-12-18T13:47:33.105Z,0.80
2022-12-18T13:50:01.826Z,0.80
2022-12-18T13:52:40.198Z,0.70
2022-12-18T13:55:16.419Z,0.60
2022-12-18T13:57:43.099Z,0.50
2022-12-18T14:00:30.140Z,0.40
2022-12-18T14:02:58.421Z,0.30
2022-12-18T14:05:27.769Z,0.20
2022-12-18T14:07:55.605Z,0.10
2022-12-18T14:13:16.116Z,0.00
2022-12-18T14:15:47.531Z,0.00
2022-12-18T14:18:26.324Z,-0.10
2022-12-18T14:20:56.369Z,-0.20
2022-12-18T14:23:35.940Z,-0.20
2022-12-18T14:26:06.276Z,-0.30
2022-12-18T14:28:33.367Z,-0.30
2022-12-18T14:31:00.141Z,-0.40
2022-12-18T14:33:28.424Z,-0.40
2022-12-18T14:36:01.584Z,-0.50
2022-12-18T14:38:28.319Z,-0.50
2022-12-18T14:41:15.234Z,-0.60
2022-12-18T14:43:44.402Z,-0.60
2022-12-18T14:46:33.736Z,-0.70
2022-12-18T14:49:29.353Z,-0.80
2022-12-18T14:52:23.676Z,-0.90
2022-12-18T14:54:50.560Z,-0.90
2022-12-18T14:57:25.989Z,-1.00
2022-12-18T14:59:52.844Z,-1.10
2022-12-18T15:02:30.088Z,-1.20
2022-12-18T15:05:09.824Z,-1.20
2022-12-18T15:07:45.258Z,-1.30
2022-12-18T15:10:13.949Z,-1.30
2022-12-18T15:12:46.071Z,-1.30
2022-12-18T15:15:34.947Z,-1.30
2022-12-18T15:18:03.992Z,-1.30
2022-12-18T15:20:40.772Z,-1.40
2022-12-18T15:23:25.944Z,-1.40
2022-12-18T15:26:04.622Z,-1.50
2022-12-18T15:28:46.311Z,-1.50
2022-12-18T15:31:13.160Z,-1.60
2022-12-18T15:34:04.643Z,-1.60
2022-12-18T15:36:31.566Z,-1.60
2022-12-18T15:39:04.747Z,-1.60
2022-12-18T15:41:35.216Z,-1.60
2022-12-18T15:44:04.427Z,-1.60
2022-12-18T15:46:31.748Z,-1.60
2022-12-18T15:49:02.124Z,-1.60
2022-12-18T15:51:36.559Z,-1.60
2022-12-18T15:54:06.148Z,-1.70
2022-12-18T15:56:52.090Z,-1.80
2022-12-18T15:59:20.721Z,-1.90
2022-12-18T16:01:49.729Z,-1.90
2022-12-18T16:04:21.369Z,-1.90
2022-12-18T16:07:13.895Z,-2.00
2022-12-18T16:09:37.037Z,-2.10
2022-12-18T16:12:03.912Z,-2.20
2022-12-18T16:14:31.234Z,-2.30
2022-12-18T16:17:00.645Z,-2.40
2022-12-18T16:19:27.837Z,-2.40
2022-12-18T16:21:57.271Z,-2.40
2022-12-18T16:24:26.555Z,-2.50
2022-12-18T16:26:54.441Z,-2.50
2022-12-18T16:29:25.658Z,-2.50
2022-12-18T16:31:53.023Z,-2.50
2022-12-18T16:34:29.792Z,-2.50
2022-12-18T16:37:05.858Z,-2.50
2022-12-18T16:39:37.355Z,-2.50
2022-12-18T16:42:20.124Z,-2.50
2022-12-18T16:44:48.680Z,-2.50
2022-12-18T16:47:16.319Z,-2.50
2022-12-18T16:49:45.733Z,-2.50
2022-12-18T16:52:13.622Z,-2.40
2022-12-18T16:54:40.526Z,-2.40
2022-12-18T16:57:07.235Z,-2.50
2022-12-18T16:59:35.085Z,-2.60
2022-12-18T17:02:01.872Z,-2.60
2022-12-18T17:04:28.641Z,-2.60
2022-12-18T17:06:55.486Z,-2.60
2022-12-18T17:09:26.358Z,-2.60
2022-12-18T17:11:54.280Z,-2.60
2022-12-18T17:14:23.654Z,-2.50
2022-12-18T17:17:07.216Z,-2.50
2022-12-18T17:19:36.483Z,-2.50
2022-12-18T17:22:04.336Z,-2.50
2022-12-18T17:24:34.773Z,-2.50
2022-12-18T17:27:02.295Z,-2.40
2022-12-18T17:29:29.017Z,-2.40
2022-12-18T17:31:55.662Z,-2.40
2022-12-18T17:34:24.292Z,-2.40
2022-12-18T17:36:51.200Z,-2.30
2022-12-18T17:39:20.265Z,-2.30
2022-12-18T17:41:48.173Z,-2.30
2022-12-18T17:44:15.119Z,-2.30
2022-12-18T17:46:42.329Z,-2.20
2022-12-18T17:49:10.500Z,-2.20
2022-12-18T17:51:37.302Z,-2.30
2022-12-18T17:54:05.287Z,-2.30
2022-12-18T17:56:32.852Z,-2.40
2022-12-18T17:59:00.121Z,-2.40
2022-12-18T18:01:27.471Z,-2.50
2022-12-18T18:03:57.510Z,-2.70
2022-12-18T18:06:24.416Z,-2.80
2022-12-18T18:08:51.957Z,-2.90
2022-12-18T18:11:40.005Z,-3.00
2022-12-18T18:14:13.411Z,-3.00
2022-12-18T18:16:43.042Z,-2.90
2022-12-18T18:19:12.451Z,-2.90
2022-12-18T18:21:41.700Z,-2.80
2022-12-18T18:24:10.438Z,-2.80
2022-12-18T18:26:37.869Z,-2.80
2022-12-18T18:29:06.857Z,-2.80
2022-12-18T18:31:39.681Z,-2.80
2022-12-18T18:34:08.766Z,-2.80
2022-12-18T18:36:35.371Z,-2.90
2022-12-18T18:39:02.279Z,-3.00
2022-12-18T18:41:30.452Z,-3.00
2022-12-18T18:43:58.274Z,-3.00
2022-12-18T18:46:25.737Z,-3.00
2022-12-18T18:48:53.032Z,-3.00
2022-12-18T18:51:21.524Z,-3.00
2022-12-18T18:53:50.620Z,-3.10
2022-12-18T18:56:56.164Z,-3.00
2022-12-18T18:59:06.718Z,-3.00
2022-12-18T19:01:33.447Z,-3.00
2022-12-18T19:04:01.066Z,-3.00
2022-12-18T19:06:28.461Z,-3.10
2022-12-18T19:08:57.356Z,-3.20
2022-12-18T19:11:44.495Z,-3.20
2022-12-18T19:14:13.613Z,-3.30
2022-12-18T19:16:40.840Z,-3.30
2022-12-18T19:19:08.214Z,-3.30
2022-12-18T19:21:35.701Z,-3.30
2022-12-18T19:24:02.677Z,-3.40
2022-12-18T19:26:30.355Z,-3.40
2022-12-18T19:29:08.365Z,-3.40
2022-12-18T19:31:37.182Z,-3.30
2022-12-18T19:34:06.787Z,-3.40
2022-12-18T19:36:35.596Z,-3.40
2022-12-18T19:39:08.911Z,-3.40
2022-12-18T19:41:35.577Z,-3.50
2022-12-18T19:44:07.883Z,-3.50
2022-12-18T19:46:36.159Z,-3.50
2022-12-18T19:49:07.303Z,-3.40
2022-12-18T19:51:34.423Z,-3.30
2022-12-18T19:54:02.114Z,-3.20
2022-12-18T19:56:32.583Z,-3.10
2022-12-18T19:58:59.787Z,-3.00
2022-12-18T20:01:27.442Z,-3.00
2022-12-18T20:03:55.883Z,-3.00
2022-12-18T20:06:31.022Z,-3.10
2022-12-18T20:09:01.433Z,-3.10
2022-12-18T20:11:32.057Z,-3.10
2022-12-18T20:13:59.000Z,-3.20
2022-12-18T20:16:25.729Z,-3.10
2022-12-18T20:18:52.483Z,-3.10
2022-12-18T20:21:19.611Z,-3.20
2022-12-18T20:23:46.303Z,-3.20
2022-12-18T20:26:13.187Z,-3.10
2022-12-18T20:28:40.712Z,-3.10
2022-12-18T20:31:10.499Z,-3.10
2022-12-18T20:33:41.445Z,-3.10
2022-12-18T20:36:12.997Z,-3.10
2022-12-18T20:38:41.125Z,-3.10
2022-12-18T20:41:16.761Z,-3.10
2022-12-18T20:43:44.515Z,-3.10
2022-12-18T20:46:13.761Z,-3.10
2022-12-18T20:48:41.047Z,-3.10
2022-12-18T20:51:08.816Z,-3.10
2022-12-18T20:53:36.408Z,-3.10
2022-12-18T20:56:09.502Z,-3.00
2022-12-18T20:58:36.404Z,-3.00
2022-12-18T21:01:05.456Z,-2.90
2022-12-18T21:03:32.523Z,-2.90
2022-12-18T21:05:59.662Z,-2.80
2022-12-18T21:08:26.424Z,-2.70
2022-12-18T21:10:53.328Z,-2.70
2022-12-18T21:13:22.480Z,-2.70
2022-12-18T21:15:49.210Z,-2.60
2022-12-18T21:18:16.036Z,-2.60
2022-12-18T21:20:42.787Z,-2.70
2022-12-18T21:23:16.512Z,-2.70
2022-12-18T21:25:44.332Z,-2.70
2022-12-18T21:28:12.348Z,-2.60
2022-12-18T21:30:39.121Z,-2.50
2022-12-18T21:33:05.797Z,-2.50
2022-12-18T21:35:32.479Z,-2.50
2022-12-18T21:37:59.141Z,-2.40
2022-12-18T21:40:25.802Z,-2.40
2022-12-18T21:43:17.891Z,-2.40
2022-12-18T21:45:44.706Z,-2.50
2022-12-18T21:48:12.135Z,-2.50
2022-12-18T21:50:38.987Z,-2.60
2022-12-18T21:53:05.668Z,-2.60
2022-12-18T21:55:32.338Z,-2.60
2022-12-18T21:57:59.093Z,-2.50
2022-12-18T22:00:25.830Z,-2.50
2022-12-18T22:03:17.219Z,-2.40
2022-12-18T22:05:39.352Z,-2.40
2022-12-18T22:08:07.462Z,-2.40
2022-12-18T22:10:34.716Z,-2.40
2022-12-18T22:13:01.443Z,-2.40
2022-12-18T22:15:28.252Z,-2.30
2022-12-18T22:17:59.683Z,-2.30
2022-12-18T22:20:28.100Z,-2.30
2022-12-18T22:22:56.553Z,-2.30
2022-12-18T22:25:23.265Z,-2.30
2022-12-18T22:28:08.539Z,-2.30
2022-12-18T22:30:35.600Z,-2.30
2022-12-18T22:33:03.477Z,-2.40
2022-12-18T22:35:30.299Z,-2.30
2022-12-18T22:37:59.360Z,-2.30
2022-12-18T22:40:26.964Z,-2.30
2022-12-18T22:42:54.316Z,-2.30
2022-12-18T22:45:21.069Z,-2.20
2022-12-18T22:47:47.809Z,-2.20
2022-12-18T22:50:15.196Z,-2.20
2022-12-18T22:52:42.425Z,-2.10
2022-12-18T22:55:09.370Z,-2.10
2022-12-18T22:57:36.103Z,-2.10
2022-12-18T23:00:05.600Z,-2.10
2022-12-18T23:02:32.667Z,-2.10
2022-12-18T23:04:59.509Z,-2.10
2022-12-18T23:07:26.184Z,-2.10
2022-12-18T23:09:59.588Z,-2.10
2022-12-18T23:12:28.013Z,-2.10
2022-12-18T23:14:54.784Z,-2.00
2022-12-18T23:17:21.513Z,-2.00
2022-12-18T23:19:49.379Z,-2.00
2022-12-18T23:22:17.123Z,-1.90
2022-12-18T23:24:44.088Z,-1.90
2022-12-18T23:27:11.879Z,-1.80
2022-12-18T23:29:39.493Z,-1.80
2022-12-18T23:32:06.556Z,-1.70
2022-12-18T23:34:33.323Z,-1.70
2022-12-18T23:37:01.006Z,-1.60
2022-12-18T23:39:29.304Z,-1.60
2022-12-18T23:42:00.184Z,-1.60
2022-12-18T23:44:27.286Z,-1.60
2022-12-18T23:46:54.291Z,-1.60
2022-12-18T23:49:21.166Z,-1.60
2022-12-18T23:51:48.002Z,-1.60
2022-12-18T23:54:14.808Z,-1.60
2022-12-18T23:56:41.813Z,-1.60
2022-12-18T23:59:08.623Z,-1.60
